createdAt,value
2022-10-22T00:00:18.043Z,13.77
2022-10-22T00:02:48.469Z,13.77
2022-10-22T00:05:16.085Z,13.70
2022-10-22T00:07:43.421Z,13.73
2022-10-22T00:10:10.497Z,13.73
2022-10-22T00:12:37.887Z,13.88
2022-10-22T00:15:06.236Z,13.64
2022-10-22T00:17:33.111Z,13.98
2022-10-22T00:19:59.750Z,13.74
2022-10-22T00:22:29.275Z,13.94
2022-10-22T00:24:55.967Z,13.70
2022-10-22T00:27:22.734Z,13.58
2022-10-22T00:29:49.419Z,13.85
2022-10-22T00:32:16.243Z,13.43
2022-10-22T00:34:42.780Z,13.82
2022-10-22T00:37:09.438Z,13.29
2022-10-22T00:39:36.021Z,13.39
2022-10-22T00:42:02.605Z,13.45
2022-10-22T00:45:03.149Z,13.77
2022-10-22T00:47:51.817Z,13.77
2022-10-22T00:50:26.782Z,13.45
2022-10-22T00:52:55.231Z,13.29
2022-10-22T00:55:29.146Z,13.55
2022-10-22T00:57:57.601Z,13.56
2022-10-22T01:00:25.063Z,13.34
2022-10-22T01:02:53.670Z,13.35
2022-10-22T01:05:21.298Z,13.38
2022-10-22T01:07:51.719Z,13.29
2022-10-22T01:10:33.482Z,13.49
2022-10-22T01:13:35.955Z,13.40
2022-10-22T01:16:15.965Z,13.40
2022-10-22T01:18:59.277Z,13.16
2022-10-22T01:21:37.661Z,13.32
2022-10-22T01:25:01.900Z,13.10
2022-10-22T01:27:35.687Z,13.11
2022-10-22T01:30:06.788Z,13.08
2022-10-22T01:32:40.272Z,13.00
2022-10-22T01:35:11.396Z,13.10
2022-10-22T01:37:53.220Z,13.20
2022-10-22T01:40:20.237Z,13.16
2022-10-22T01:43:00.573Z,13.16
2022-10-22T01:45:30.293Z,13.12
2022-10-22T01:48:18.014Z,13.28
2022-10-22T01:51:12.392Z,13.08
2022-10-22T01:54:26.280Z,12.94
2022-10-22T01:57:34.664Z,13.18
2022-10-22T02:00:08.537Z,13.11
2022-10-22T02:03:05.912Z,13.21
2022-10-22T02:05:35.586Z,13.22
2022-10-22T02:08:08.311Z,13.06
2022-10-22T02:10:39.638Z,13.13
2022-10-22T02:13:12.545Z,12.95
2022-10-22T02:15:40.844Z,12.82
2022-10-22T02:18:09.940Z,12.81
2022-10-22T02:20:41.632Z,12.99
2022-10-22T02:23:10.085Z,12.81
2022-10-22T02:25:40.440Z,12.86
2022-10-22T02:28:31.251Z,13.17
2022-10-22T02:31:06.813Z,12.73
2022-10-22T02:33:43.178Z,12.74
2022-10-22T02:36:10.175Z,12.89
2022-10-22T02:38:37.340Z,12.83
2022-10-22T02:41:04.566Z,12.99
2022-10-22T02:43:31.108Z,12.99
2022-10-22T02:46:00.315Z,12.96
2022-10-22T02:48:30.218Z,12.85
2022-10-22T02:50:58.524Z,12.80
2022-10-22T02:53:25.838Z,13.13
2022-10-22T02:56:06.556Z,12.97
2022-10-22T02:58:50.326Z,12.65
2022-10-22T03:01:17.140Z,12.72
2022-10-22T03:03:43.690Z,13.09
2022-10-22T03:06:10.218Z,12.90
2022-10-22T03:08:37.227Z,12.95
2022-10-22T03:11:04.349Z,12.75
2022-10-22T03:13:30.904Z,13.15
2022-10-22T03:16:00.400Z,12.66
2022-10-22T03:18:27.028Z,12.60
2022-10-22T03:21:07.846Z,12.88
2022-10-22T03:23:34.446Z,12.80
2022-10-22T03:26:01.594Z,13.03
2022-10-22T03:28:28.336Z,12.95
2022-10-22T03:30:54.750Z,13.10
2022-10-22T03:33:21.444Z,12.72
2022-10-22T03:40:31.416Z,13.01
2022-10-22T03:42:58.862Z,12.81
2022-10-22T03:45:25.941Z,12.99
2022-10-22T03:47:54.616Z,12.80
2022-10-22T03:50:24.165Z,12.96
2022-10-22T03:52:50.801Z,13.03
2022-10-22T03:55:17.595Z,12.99
2022-10-22T03:57:47.408Z,13.10
2022-10-22T04:00:21.075Z,12.60
2022-10-22T04:06:41.807Z,12.76
2022-10-22T04:18:03.722Z,12.63
2022-10-22T04:20:33.734Z,12.90
2022-10-22T04:23:00.292Z,12.98
2022-10-22T04:25:27.137Z,12.97
2022-10-22T04:27:53.771Z,13.29
2022-10-22T04:30:22.518Z,12.99
2022-10-22T04:32:52.025Z,12.97
2022-10-22T04:35:18.929Z,13.09
2022-10-22T04:37:45.708Z,13.10
2022-10-22T04:40:12.470Z,13.39
2022-10-22T04:42:39.152Z,12.94
2022-10-22T04:45:06.165Z,12.83
2022-10-22T04:47:32.662Z,13.09
2022-10-22T04:49:59.213Z,12.94
2022-10-22T04:52:34.983Z,12.87
2022-10-22T04:55:01.569Z,13.05
2022-10-22T04:57:31.159Z,13.00
2022-10-22T04:59:57.787Z,13.07
2022-10-22T05:02:24.658Z,12.99
2022-10-22T05:04:54.100Z,13.12
2022-10-22T05:07:24.109Z,12.60
2022-10-22T05:09:55.250Z,12.84
2022-10-22T05:12:22.144Z,12.71
2022-10-22T05:14:59.977Z,12.80
2022-10-22T05:20:46.191Z,12.69
2022-10-22T05:23:18.811Z,12.66
2022-10-22T05:26:17.480Z,12.68
2022-10-22T05:29:23.656Z,12.77
2022-10-22T05:32:12.520Z,12.41
2022-10-22T05:38:09.644Z,12.55
2022-10-22T06:02:51.913Z,12.26
2022-10-22T06:05:18.592Z,12.23
2022-10-22T06:27:11.819Z,12.30
2022-10-22T07:16:29.558Z,13.35
2022-10-22T07:19:01.099Z,13.20
2022-10-22T07:29:16.619Z,13.57
2022-10-22T07:31:47.187Z,13.54
2022-10-22T07:38:18.907Z,13.66
2022-10-22T07:44:46.764Z,13.36
2022-10-22T07:47:17.086Z,13.46
2022-10-22T07:53:45.541Z,13.39
2022-10-22T07:56:38.924Z,13.41
2022-10-22T07:59:06.156Z,13.54
2022-10-22T08:01:36.070Z,13.73
2022-10-22T08:04:58.521Z,13.84
2022-10-22T08:14:54.108Z,13.97
2022-10-22T08:17:30.059Z,13.59
2022-10-22T08:20:08.031Z,13.66
2022-10-22T08:22:41.152Z,13.86
2022-10-22T08:28:59.585Z,13.82
2022-10-22T08:31:26.204Z,13.77
2022-10-22T08:33:59.419Z,14.06
2022-10-22T08:36:26.471Z,14.08
2022-10-22T08:39:28.720Z,14.02
2022-10-22T08:42:17.157Z,14.24
2022-10-22T08:52:03.125Z,14.12
2022-10-22T08:54:48.825Z,14.18
2022-10-22T08:57:40.209Z,14.17
2022-10-22T09:00:36.169Z,14.26
2022-10-22T09:06:18.834Z,14.16
2022-10-22T09:08:47.106Z,13.94
2022-10-22T09:11:18.006Z,14.24
2022-10-22T09:17:16.103Z,14.23
2022-10-22T09:20:09.923Z,14.41
2022-10-22T09:22:53.155Z,14.42
2022-10-22T09:25:29.981Z,14.37
2022-10-22T09:27:58.768Z,14.55
2022-10-22T09:30:28.641Z,14.63
2022-10-22T09:33:10.953Z,14.72
2022-10-22T09:35:51.266Z,14.62
2022-10-22T09:45:46.740Z,14.44
2022-10-22T09:48:39.527Z,14.80
2022-10-22T09:51:31.787Z,14.64
2022-10-22T09:54:24.762Z,14.46
2022-10-22T09:57:04.606Z,14.60
2022-10-22T10:02:38.575Z,14.91
2022-10-22T10:05:06.940Z,14.96
2022-10-22T10:10:46.887Z,14.86
2022-10-22T10:13:28.934Z,15.05
2022-10-22T10:19:19.048Z,14.93
2022-10-22T10:22:11.598Z,15.02
2022-10-22T10:25:21.345Z,15.31
2022-10-22T10:28:09.097Z,14.88
2022-10-22T10:30:39.887Z,15.02
2022-10-22T10:34:01.960Z,14.79
2022-10-22T10:36:59.055Z,15.10
2022-10-22T10:39:37.097Z,14.81
2022-10-22T10:42:19.834Z,15.23
2022-10-22T10:44:50.246Z,15.43
2022-10-22T10:47:58.258Z,15.32
2022-10-22T12:19:43.660Z,17.43
2022-10-22T12:56:19.814Z,18.19
2022-10-22T12:59:08.032Z,18.23
2022-10-22T13:01:42.255Z,18.33
2022-10-22T13:12:08.910Z,17.92
2022-10-22T13:21:53.119Z,18.15
2022-10-22T13:24:24.437Z,18.17
2022-10-22T13:27:00.633Z,18.07
2022-10-22T13:29:38.557Z,18.36
2022-10-22T13:32:05.391Z,18.38
2022-10-22T13:34:32.504Z,18.60
2022-10-22T13:37:04.003Z,18.76
2022-10-22T13:39:35.409Z,18.68
2022-10-22T13:42:11.983Z,18.57
2022-10-22T13:44:38.748Z,18.79
2022-10-22T13:47:27.324Z,18.68
2022-10-22T13:54:40.825Z,18.90
2022-10-22T13:57:09.558Z,18.76
2022-10-22T13:59:40.620Z,18.47
2022-10-22T14:02:17.855Z,18.56
2022-10-22T14:10:16.407Z,18.57
2022-10-22T14:16:56.949Z,18.05
2022-10-22T14:19:28.658Z,18.11
2022-10-22T14:21:55.434Z,18.11
2022-10-22T14:24:21.947Z,18.38
2022-10-22T14:26:48.704Z,18.46
2022-10-22T14:29:29.813Z,18.59
2022-10-22T14:31:56.866Z,18.38
2022-10-22T14:34:24.002Z,18.30
2022-10-22T14:41:37.679Z,18.50
2022-10-22T14:44:06.786Z,18.33
2022-10-22T14:46:34.129Z,18.41
2022-10-22T14:49:00.782Z,18.25
2022-10-22T14:51:36.816Z,18.32
2022-10-22T14:57:52.764Z,18.05
2022-10-22T15:07:25.045Z,17.80
2022-10-22T15:09:51.812Z,17.60
2022-10-22T15:12:19.954Z,17.78
2022-10-22T15:14:52.153Z,17.47
2022-10-22T15:17:31.388Z,17.44
2022-10-22T15:20:02.663Z,17.29
2022-10-22T15:29:08.949Z,16.89
2022-10-22T15:31:47.181Z,16.79
2022-10-22T15:34:18.073Z,16.37
2022-10-22T15:36:46.990Z,16.14
2022-10-22T15:39:14.019Z,16.04
2022-10-22T15:42:22.355Z,16.02
2022-10-22T15:44:49.016Z,15.79
2022-10-22T15:47:15.503Z,15.91
2022-10-22T15:49:42.121Z,15.94
2022-10-22T15:52:09.830Z,15.70
2022-10-22T21:29:29.173Z,14.57
2022-10-22T21:31:59.561Z,14.21
2022-10-22T21:34:38.154Z,14.39
2022-10-22T21:38:15.731Z,14.47
2022-10-22T21:40:45.991Z,13.99
2022-10-22T21:43:21.300Z,14.36
2022-10-22T21:45:55.432Z,14.27
2022-10-22T21:48:22.088Z,14.40
2022-10-22T21:50:50.067Z,14.38
2022-10-22T21:53:16.704Z,14.20
2022-10-22T21:55:43.206Z,14.06
2022-10-22T21:58:09.715Z,14.00
2022-10-22T22:00:36.986Z,14.01
2022-10-22T22:03:07.780Z,14.13
2022-10-22T22:05:34.508Z,14.35
2022-10-22T22:08:01.030Z,14.38
2022-10-22T22:10:27.772Z,14.12
2022-10-22T22:12:54.347Z,14.28
2022-10-22T22:15:21.085Z,13.94
2022-10-22T22:17:47.582Z,14.22
2022-10-22T22:20:14.335Z,13.89
2022-10-22T22:22:41.053Z,14.15
2022-10-22T22:25:08.253Z,13.60
2022-10-22T22:27:35.091Z,13.74
2022-10-22T22:30:02.028Z,13.82
2022-10-22T22:32:28.631Z,13.65
2022-10-22T22:34:55.296Z,13.70
2022-10-22T22:37:24.538Z,13.46
2022-10-22T22:39:51.407Z,13.47
2022-10-22T22:42:18.079Z,13.26
2022-10-22T22:44:44.754Z,13.05
2022-10-22T22:47:11.392Z,13.14
2022-10-22T22:49:38.138Z,13.28
2022-10-22T22:52:04.897Z,12.87
2022-10-22T22:54:31.603Z,13.10
2022-10-22T22:56:58.353Z,12.72
2022-10-22T22:59:24.945Z,13.02
2022-10-22T23:01:54.176Z,12.59
2022-10-22T23:04:25.321Z,12.74
2022-10-22T23:06:52.479Z,12.63
2022-10-22T23:11:47.547Z,12.60
2022-10-22T23:14:15.999Z,12.66
2022-10-22T23:16:46.219Z,12.29
2022-10-22T23:19:14.871Z,12.44
2022-10-22T23:21:46.394Z,12.58
2022-10-22T23:24:16.860Z,12.50
2022-10-22T23:26:45.751Z,12.57
2022-10-22T23:29:19.865Z,12.43
2022-10-22T23:31:47.920Z,12.69
2022-10-22T23:34:20.894Z,12.40
2022-10-22T23:36:48.171Z,12.53
2022-10-22T23:39:17.911Z,12.47
2022-10-22T23:41:44.847Z,12.30
2022-10-22T23:44:12.452Z,12.08
2022-10-22T23:46:39.188Z,12.61
2022-10-22T23:49:06.405Z,12.84
2022-10-22T23:51:33.299Z,12.38
2022-10-22T23:54:02.447Z,12.42
2022-10-22T23:56:29.808Z,12.63
2022-10-22T23:58:57.176Z,12.58
